Time;durP1;ratioP1;P1;durP2;ratioP2;P2;SDS_P1;SDS_P2;PMS_P1;PMS_P2;Temp;Humidity;BMP_temperature;BMP_pressure;BME280_temperature;BME280_humidity;BME280_pressure;Samples;Min_cycle;Max_cycle;Signal;HPM_P1;HPM_P2
2023/08/29 00:01:29;;;;;;;3.30;2.78;;;14.20;99.90;;;;;;5043560;28;20041;-75
2023/08/29 00:03:58;;;;;;;3.22;2.83;;;14.20;99.90;;;;;;5057119;28;20057;-75
2023/08/29 00:06:24;;;;;;;2.72;2.53;;;14.10;99.90;;;;;;5049617;28;20041;-75
2023/08/29 00:08:51;;;;;;;3.90;2.97;;;14.10;99.90;;;;;;5047074;28;20115;-75
2023/08/29 00:11:17;;;;;;;5.47;3.00;;;14.10;99.90;;;;;;5047050;28;20080;-75
2023/08/29 00:13:44;;;;;;;3.65;3.00;;;14.10;99.90;;;;;;5041283;28;20049;-75
2023/08/29 00:16:15;;;;;;;5.20;3.28;;;14.10;99.90;;;;;;5044580;28;20071;-75
2023/08/29 00:18:44;;;;;;;3.65;2.80;;;14.10;99.90;;;;;;5051255;28;20430;-75
2023/08/29 00:21:10;;;;;;;4.65;3.47;;;14.10;99.90;;;;;;5046825;28;20045;-75
2023/08/29 00:23:38;;;;;;;3.85;3.17;;;14.10;99.90;;;;;;5043543;28;20041;-74
2023/08/29 00:26:04;;;;;;;4.32;2.80;;;14.10;99.90;;;;;;5042375;28;20052;-75
2023/08/29 00:28:30;;;;;;;5.85;3.05;;;14.10;99.90;;;;;;5040824;28;20049;-75
2023/08/29 00:30:55;;;;;;;7.18;3.33;;;14.00;99.90;;;;;;5040723;28;20041;-74
2023/08/29 00:33:21;;;;;;;4.40;3.33;;;14.00;99.90;;;;;;5044733;28;20155;-75
2023/08/29 00:35:47;;;;;;;3.88;3.10;;;14.00;99.90;;;;;;5047086;28;20102;-75
2023/08/29 00:38:14;;;;;;;5.00;3.45;;;14.00;99.90;;;;;;5046301;28;20052;-75
2023/08/29 00:40:40;;;;;;;4.55;3.42;;;13.90;99.90;;;;;;5049136;28;20045;-75
2023/08/29 00:43:06;;;;;;;4.32;3.53;;;13.90;99.90;;;;;;5044788;28;20040;-75
2023/08/29 00:45:39;;;;;;;4.43;3.60;;;13.90;99.90;;;;;;5039016;28;20048;-75
2023/08/29 00:48:06;;;;;;;5.95;3.20;;;13.80;99.90;;;;;;5049659;28;20120;-75
2023/08/29 00:50:33;;;;;;;4.82;3.10;;;13.80;99.90;;;;;;5040577;28;20663;-75
2023/08/29 00:53:04;;;;;;;5.10;3.40;;;13.80;99.90;;;;;;5042647;28;20504;-75
2023/08/29 00:55:31;;;;;;;4.35;3.17;;;13.80;99.90;;;;;;5046511;28;20295;-75
2023/08/29 00:57:59;;;;;;;4.78;3.25;;;13.80;99.90;;;;;;5047550;28;20137;-75
2023/08/29 01:00:30;;;;;;;4.72;3.00;;;13.80;99.90;;;;;;5045365;28;20049;-75
2023/08/29 01:02:56;;;;;;;4.10;3.25;;;13.80;99.90;;;;;;5043751;28;20076;-75
2023/08/29 01:05:22;;;;;;;4.80;2.97;;;13.70;99.90;;;;;;5038467;28;20057;-75
2023/08/29 01:07:58;;;;;;;3.33;3.00;;;13.70;99.90;;;;;;5040409;28;20041;-75
2023/08/29 01:10:51;;;;;;;5.18;3.10;;;13.70;99.90;;;;;;5039480;28;21978;-75
2023/08/29 01:13:51;;;;;;;4.05;2.85;;;13.70;99.90;;;;;;5045696;28;20091;-75
2023/08/29 01:16:21;;;;;;;4.95;3.20;;;13.70;99.90;;;;;;5038336;28;20040;-75
2023/08/29 01:18:47;;;;;;;3.78;2.97;;;13.70;99.90;;;;;;5046899;28;20080;-75
2023/08/29 01:21:28;;;;;;;3.17;2.80;;;13.70;99.90;;;;;;5037098;28;20053;-74
2023/08/29 01:24:03;;;;;;;4.95;2.90;;;13.70;99.90;;;;;;5047427;28;20041;-75
2023/08/29 01:26:29;;;;;;;4.47;2.75;;;13.70;99.90;;;;;;5038485;28;20092;-74
2023/08/29 01:28:57;;;;;;;3.10;2.63;;;13.70;99.90;;;;;;5044030;28;20064;-75
2023/08/29 01:31:23;;;;;;;;;;;13.60;99.90;;;;;;5040159;28;20095;-75
2023/08/29 01:33:49;;;;;;;3.75;2.80;;;13.50;99.90;;;;;;5038752;28;20373;-75
2023/08/29 01:36:15;;;;;;;3.87;2.70;;;13.50;99.90;;;;;;5047059;28;20043;-75
2023/08/29 01:38:41;;;;;;;3.17;2.60;;;13.50;99.90;;;;;;5042054;28;20312;-74
2023/08/29 01:41:06;;;;;;;2.80;2.60;;;13.50;99.90;;;;;;5042521;28;20127;-75
2023/08/29 01:43:32;;;;;;;3.40;2.50;;;13.50;99.90;;;;;;5056043;28;20048;-75
2023/08/29 01:45:58;;;;;;;2.72;2.35;;;13.40;99.90;;;;;;5043081;28;20488;-75
2023/08/29 01:48:23;;;;;;;3.83;2.60;;;13.40;99.90;;;;;;5042230;28;20461;-75
2023/08/29 01:50:49;;;;;;;3.20;2.80;;;13.40;99.90;;;;;;5043186;28;20079;-74
2023/08/29 01:53:15;;;;;;;3.10;2.80;;;13.40;99.90;;;;;;5037078;28;20886;-74
2023/08/29 01:55:43;;;;;;;3.00;2.80;;;13.40;99.90;;;;;;5041830;28;20053;-74
2023/08/29 01:58:10;;;;;;;2.78;2.58;;;13.30;99.90;;;;;;5048727;28;20193;-74
2023/08/29 02:00:36;;;;;;;3.60;3.30;;;13.30;99.90;;;;;;5036271;28;20552;-76
2023/08/29 02:03:02;;;;;;;3.40;2.70;;;13.20;99.90;;;;;;5042012;28;20131;-76
2023/08/29 02:05:28;;;;;;;3.33;2.80;;;13.20;99.90;;;;;;5039185;28;20105;-76
2023/08/29 02:07:53;;;;;;;4.18;2.88;;;13.20;99.90;;;;;;5042485;28;20037;-76
2023/08/29 02:10:19;;;;;;;3.13;2.72;;;13.20;99.90;;;;;;5043461;28;20124;-76
2023/08/29 02:12:45;;;;;;;2.83;2.63;;;13.20;99.90;;;;;;5041320;28;20037;-76
2023/08/29 02:15:11;;;;;;;4.80;2.40;;;13.10;99.90;;;;;;5042980;28;20045;-76
2023/08/29 02:17:37;;;;;;;2.90;2.60;;;13.10;99.90;;;;;;5043040;28;20083;-76
2023/08/29 02:20:05;;;;;;;2.45;2.20;;;13.00;99.90;;;;;;5037127;28;20475;-76
2023/08/29 02:22:31;;;;;;;3.92;2.75;;;13.00;99.90;;;;;;5036478;28;20083;-76
2023/08/29 02:24:56;;;;;;;5.72;2.78;;;13.00;99.90;;;;;;5039570;28;20040;-76
2023/08/29 02:27:22;;;;;;;3.80;3.40;;;13.00;99.90;;;;;;5039695;28;20284;-77
2023/08/29 02:29:48;;;;;;;3.15;2.85;;;13.00;99.90;;;;;;5059906;28;20049;-77
2023/08/29 02:32:15;;;;;;;4.38;2.83;;;13.00;99.90;;;;;;5044452;28;20045;-76
2023/08/29 02:34:40;;;;;;;3.28;2.70;;;13.10;99.90;;;;;;5045186;28;20500;-76
2023/08/29 02:37:07;;;;;;;3.88;2.92;;;13.10;99.90;;;;;;5038667;28;20068;-76
2023/08/29 02:39:32;;;;;;;4.73;3.00;;;13.10;99.90;;;;;;5037773;28;20076;-77
2023/08/29 02:41:58;;;;;;;2.90;2.67;;;13.00;99.90;;;;;;5037513;28;20083;-76
2023/08/29 02:44:24;;;;;;;4.20;2.35;;;13.00;99.90;;;;;;5041823;28;20041;-76
2023/08/29 02:46:49;;;;;;;2.38;1.70;;;13.00;99.90;;;;;;5045856;28;20041;-76
2023/08/29 02:49:15;;;;;;;3.47;2.03;;;13.00;99.90;;;;;;5040439;28;20124;-75
2023/08/29 02:51:41;;;;;;;2.63;1.80;;;13.00;99.90;;;;;;5045398;28;20033;-75
2023/08/29 02:54:06;;;;;;;3.15;2.10;;;13.00;99.90;;;;;;5043350;28;20164;-76
2023/08/29 02:56:32;;;;;;;3.67;2.13;;;13.00;99.90;;;;;;5040762;28;20041;-76
2023/08/29 02:58:58;;;;;;;2.33;2.13;;;12.90;99.90;;;;;;5040895;28;20518;-76
2023/08/29 03:01:23;;;;;;;2.85;2.50;;;12.90;99.90;;;;;;5045447;28;20450;-76
2023/08/29 03:03:50;;;;;;;3.38;2.33;;;12.80;99.90;;;;;;5039312;28;20150;-76
2023/08/29 03:06:15;;;;;;;2.60;2.40;;;12.80;99.90;;;;;;5038710;28;20049;-76
2023/08/29 03:08:41;;;;;;;3.00;2.80;;;12.80;99.90;;;;;;5044084;28;20558;-76
2023/08/29 03:11:07;;;;;;;2.95;2.75;;;12.70;99.90;;;;;;5039400;28;20044;-76
2023/08/29 03:13:32;;;;;;;5.20;3.40;;;12.70;99.90;;;;;;5043231;28;20037;-76
2023/08/29 03:15:59;;;;;;;5.18;2.90;;;12.70;99.90;;;;;;5035289;28;20045;-76
2023/08/29 03:18:28;;;;;;;5.28;3.10;;;12.80;99.90;;;;;;5044795;28;20048;-75
2023/08/29 03:20:55;;;;;;;5.20;3.20;;;12.80;99.90;;;;;;5048609;28;20044;-76
2023/08/29 03:23:21;;;;;;;3.80;2.83;;;12.80;99.90;;;;;;5047790;28;20045;-76
2023/08/29 03:25:47;;;;;;;3.03;2.70;;;12.80;99.90;;;;;;5048694;28;20052;-76
2023/08/29 03:28:13;;;;;;;3.03;2.72;;;12.80;99.90;;;;;;5049304;28;20102;-76
2023/08/29 03:30:39;;;;;;;3.15;2.72;;;12.70;99.90;;;;;;5048173;28;20041;-76
2023/08/29 03:33:04;;;;;;;4.88;3.22;;;12.70;99.90;;;;;;5043212;28;20048;-76
2023/08/29 03:35:30;;;;;;;4.47;3.55;;;12.70;99.90;;;;;;5060090;28;20500;-76
2023/08/29 03:37:56;;;;;;;4.75;3.28;;;12.70;99.90;;;;;;5046876;28;20049;-75
2023/08/29 03:40:24;;;;;;;5.45;3.45;;;12.70;99.90;;;;;;5044859;28;20496;-76
2023/08/29 03:42:50;;;;;;;4.47;3.60;;;12.70;99.90;;;;;;5047382;28;20025;-76
2023/08/29 03:45:18;;;;;;;5.05;3.40;;;12.60;99.90;;;;;;5051093;28;20373;-76
2023/08/29 03:47:43;;;;;;;3.95;2.95;;;12.60;99.90;;;;;;5052018;28;20049;-76
2023/08/29 03:50:09;;;;;;;3.20;2.90;;;12.60;99.90;;;;;;5046974;28;20590;-75
2023/08/29 03:52:35;;;;;;;3.00;2.55;;;12.60;99.90;;;;;;5041157;28;20195;-76
2023/08/29 03:55:01;;;;;;;2.30;2.13;;;12.60;99.90;;;;;;5048104;28;20042;-76
2023/08/29 03:57:27;;;;;;;2.38;1.75;;;12.60;99.90;;;;;;5048878;28;20507;-75
2023/08/29 03:59:52;;;;;;;2.20;1.88;;;12.60;99.90;;;;;;5048033;28;20033;-73
2023/08/29 04:02:18;;;;;;;2.22;1.80;;;12.60;99.90;;;;;;5048398;28;20419;-73
2023/08/29 04:04:44;;;;;;;4.93;2.25;;;12.50;99.90;;;;;;5045365;28;20056;-73
2023/08/29 04:07:11;;;;;;;2.35;2.15;;;12.50;99.90;;;;;;5039236;28;20048;-73
2023/08/29 04:09:37;;;;;;;18.92;2.92;;;12.50;99.90;;;;;;5037230;28;20057;-73
2023/08/29 04:12:03;;;;;;;2.22;2.03;;;12.60;99.90;;;;;;5038006;28;20041;-73
2023/08/29 04:14:28;;;;;;;2.20;2.00;;;12.60;99.90;;;;;;5044729;28;20508;-73
2023/08/29 04:16:55;;;;;;;2.75;2.17;;;12.60;99.90;;;;;;5046711;28;20044;-76
2023/08/29 04:19:21;;;;;;;2.13;2.03;;;12.60;99.90;;;;;;5046873;28;20475;-75
2023/08/29 04:21:48;;;;;;;2.42;2.22;;;12.50;99.90;;;;;;5047527;28;20072;-75
2023/08/29 04:24:14;;;;;;;3.00;2.75;;;12.50;99.90;;;;;;5048972;28;20052;-75
2023/08/29 04:26:39;;;;;;;3.42;3.00;;;12.50;99.90;;;;;;5046175;28;20045;-75
2023/08/29 04:29:05;;;;;;;3.55;2.72;;;12.50;99.90;;;;;;5042276;28;20060;-75
2023/08/29 04:31:30;;;;;;;3.97;2.90;;;12.50;99.90;;;;;;5043811;28;20047;-75
2023/08/29 04:33:56;;;;;;;3.97;2.90;;;12.50;99.90;;;;;;5045798;28;20041;-72
2023/08/29 04:36:22;;;;;;;5.78;4.32;;;12.50;99.90;;;;;;5040021;28;20056;-72
2023/08/29 04:38:48;;;;;;;8.00;4.25;;;12.50;99.90;;;;;;5040816;28;20939;-72
2023/08/29 04:41:14;;;;;;;4.88;4.00;;;12.50;99.90;;;;;;5040638;28;20084;-72
2023/08/29 04:43:40;;;;;;;4.60;3.53;;;12.50;99.90;;;;;;5033695;28;20045;-72
2023/08/29 04:46:08;;;;;;;4.43;3.97;;;12.50;99.90;;;;;;5047929;28;20044;-72
2023/08/29 04:48:35;;;;;;;4.60;4.20;;;12.50;99.90;;;;;;5039422;28;20045;-72
2023/08/29 04:51:01;;;;;;;5.27;4.17;;;12.60;99.90;;;;;;5045063;28;20041;-72
2023/08/29 04:53:27;;;;;;;4.05;3.35;;;12.50;99.90;;;;;;5039499;28;20080;-72
2023/08/29 04:55:59;;;;;;;5.20;3.53;;;12.60;99.90;;;;;;5040300;28;20085;-72
2023/08/29 04:58:25;;;;;;;3.78;3.33;;;12.60;99.90;;;;;;5045512;28;20523;-72
2023/08/29 05:00:51;;;;;;;4.07;3.63;;;12.60;99.90;;;;;;5044709;28;20033;-72
2023/08/29 05:03:17;;;;;;;5.18;4.28;;;12.60;99.90;;;;;;5041402;28;20381;-72
2023/08/29 05:05:47;;;;;;;4.53;3.88;;;12.60;99.90;;;;;;5045266;28;20049;-72
2023/08/29 05:08:14;;;;;;;5.15;4.10;;;12.50;99.90;;;;;;5048359;28;20573;-72
2023/08/29 05:10:40;;;;;;;;;;;12.50;99.90;;;;;;5045282;28;20040;-72
2023/08/29 05:13:06;;;;;;;4.53;3.90;;;12.50;99.90;;;;;;5042465;28;19921;-72
2023/08/29 05:15:32;;;;;;;4.85;3.92;;;12.50;99.90;;;;;;5048352;28;20448;-72
2023/08/29 05:17:58;;;;;;;4.30;3.60;;;12.40;99.90;;;;;;5046294;28;20170;-72
2023/08/29 05:20:24;;;;;;;5.72;3.35;;;12.50;99.90;;;;;;5046935;28;20123;-72
2023/08/29 05:22:50;;;;;;;4.32;3.50;;;12.40;99.90;;;;;;5049117;28;20033;-72
2023/08/29 05:25:15;;;;;;;5.50;3.88;;;12.40;99.90;;;;;;5045310;28;20040;-72
2023/08/29 05:27:41;;;;;;;4.28;3.75;;;12.50;99.90;;;;;;5048762;28;20037;-73
2023/08/29 05:30:08;;;;;;;8.23;4.57;;;12.50;99.90;;;;;;5043001;28;20048;-72
2023/08/29 05:32:36;;;;;;;8.77;4.38;;;12.40;99.90;;;;;;5039996;28;20059;-73
2023/08/29 05:35:02;;;;;;;4.93;4.43;;;12.50;99.90;;;;;;5049340;28;20300;-72
2023/08/29 05:37:28;;;;;;;5.32;4.82;;;12.50;99.90;;;;;;5049584;28;20049;-73
2023/08/29 05:39:54;;;;;;;5.88;4.60;;;12.50;99.90;;;;;;5039713;28;20053;-72
2023/08/29 05:42:19;;;;;;;4.30;3.90;;;12.50;99.90;;;;;;5045091;28;20043;-72
2023/08/29 05:44:45;;;;;;;3.97;3.58;;;12.50;99.90;;;;;;5046777;28;20049;-72
2023/08/29 05:47:11;;;;;;;4.75;3.35;;;12.50;99.90;;;;;;5041749;28;20094;-72
2023/08/29 05:49:36;;;;;;;3.85;3.55;;;12.60;99.90;;;;;;5042395;28;20392;-72
2023/08/29 05:52:02;;;;;;;4.53;4.13;;;12.60;99.90;;;;;;5046982;28;20136;-72
2023/08/29 05:54:28;;;;;;;3.90;3.60;;;12.70;99.90;;;;;;5048811;28;20735;-72
2023/08/29 05:56:54;;;;;;;4.35;3.95;;;12.70;99.90;;;;;;5049421;28;20035;-69
2023/08/29 05:59:20;;;;;;;6.72;4.25;;;12.70;99.90;;;;;;5038034;28;20483;-70
2023/08/29 06:01:47;;;;;;;6.95;4.68;;;12.80;99.90;;;;;;5038891;28;20070;-71
2023/08/29 06:04:13;;;;;;;;;;;12.90;99.90;;;;;;5044065;28;20125;-70
2023/08/29 06:06:40;;;;;;;5.65;4.68;;;13.00;99.90;;;;;;5036493;28;20384;-71
2023/08/29 06:09:08;;;;;;;7.05;5.78;;;13.00;99.90;;;;;;5043041;28;20051;-72
2023/08/29 06:11:35;;;;;;;5.80;5.30;;;13.10;99.90;;;;;;5040038;28;20594;-71
2023/08/29 06:14:01;;;;;;;6.30;5.70;;;13.20;99.90;;;;;;5039201;28;22491;-75
2023/08/29 06:16:34;;;;;;;6.32;5.72;;;13.30;99.90;;;;;;5038172;28;20116;-74
2023/08/29 06:19:00;;;;;;;7.00;6.30;;;13.30;99.90;;;;;;5036485;28;20171;-73
2023/08/29 06:21:26;;;;;;;7.07;6.38;;;13.40;99.90;;;;;;5048024;28;20116;-74
2023/08/29 06:23:52;;;;;;;6.85;5.70;;;13.50;99.90;;;;;;5035441;28;20436;-73
2023/08/29 06:26:18;;;;;;;6.00;5.40;;;13.60;99.90;;;;;;5031146;28;20049;-75
2023/08/29 06:28:44;;;;;;;7.43;6.05;;;13.60;99.90;;;;;;5042359;28;20041;-74
2023/08/29 06:31:09;;;;;;;8.43;6.28;;;13.70;99.90;;;;;;5037609;28;20047;-74
2023/08/29 06:33:36;;;;;;;6.63;5.75;;;13.80;99.90;;;;;;5039658;28;20052;-75
2023/08/29 06:36:03;;;;;;;6.88;5.70;;;13.80;99.90;;;;;;5041397;28;20105;-74
2023/08/29 06:38:30;;;;;;;6.50;5.85;;;13.90;99.90;;;;;;5044953;28;20045;-74
2023/08/29 06:40:59;;;;;;;7.47;6.50;;;13.90;99.90;;;;;;5039965;28;20145;-75
2023/08/29 06:43:25;;;;;;;8.48;6.25;;;14.00;99.90;;;;;;5039325;28;20048;-74
2023/08/29 06:45:51;;;;;;;7.90;6.15;;;14.00;99.90;;;;;;5037489;28;20037;-73
2023/08/29 06:48:17;;;;;;;6.80;6.10;;;14.10;99.90;;;;;;5051390;28;20044;-74
2023/08/29 06:50:45;;;;;;;7.80;5.75;;;14.20;99.90;;;;;;5037662;28;20064;-74
2023/08/29 06:53:11;;;;;;;8.35;6.70;;;14.30;99.90;;;;;;5034666;28;20122;-74
2023/08/29 06:55:40;;;;;;;7.78;5.97;;;14.30;99.90;;;;;;5033653;28;20536;-74
2023/08/29 06:58:06;;;;;;;8.35;6.47;;;14.40;99.90;;;;;;5038249;28;20049;-74
2023/08/29 07:00:33;;;;;;;8.88;6.53;;;14.50;99.90;;;;;;5034472;28;20037;-74
2023/08/29 07:02:59;;;;;;;6.80;6.10;;;14.50;99.90;;;;;;5035598;28;20053;-76
2023/08/29 07:05:26;;;;;;;10.55;6.35;;;14.60;99.90;;;;;;5043559;28;20055;-74
2023/08/29 07:07:52;;;;;;;6.93;6.18;;;14.70;99.90;;;;;;5045447;28;20603;-77
2023/08/29 07:10:19;;;;;;;7.75;6.43;;;14.70;99.90;;;;;;5034667;28;20083;-78
2023/08/29 07:12:45;;;;;;;8.38;6.35;;;14.80;99.90;;;;;;5063073;28;20588;-77
2023/08/29 07:15:11;;;;;;;9.40;6.60;;;14.80;99.90;;;;;;5047263;28;20119;-76
2023/08/29 07:17:36;;;;;;;7.95;6.03;;;14.90;99.90;;;;;;5047447;28;20083;-78
2023/08/29 07:20:08;;;;;;;9.88;6.15;;;15.00;99.90;;;;;;5043186;28;20060;-77
2023/08/29 07:22:36;;;;;;;6.95;5.40;;;15.00;99.90;;;;;;5042023;28;20041;-78
2023/08/29 07:25:03;;;;;;;6.47;5.70;;;15.00;99.90;;;;;;5049341;28;20488;-78
2023/08/29 07:27:30;;;;;;;7.93;5.38;;;15.10;99.90;;;;;;5045741;28;20060;-78
2023/08/29 07:29:55;;;;;;;6.07;5.47;;;15.10;99.90;;;;;;5056372;28;20048;-79
2023/08/29 07:32:21;;;;;;;8.73;5.80;;;15.10;99.90;;;;;;5051848;28;20389;-77
2023/08/29 07:34:47;;;;;;;7.80;6.13;;;15.20;99.90;;;;;;5049284;28;20085;-77
2023/08/29 07:37:12;;;;;;;7.32;5.35;;;15.20;99.90;;;;;;5046377;28;20124;-77
2023/08/29 07:39:38;;;;;;;6.97;5.20;;;15.30;99.90;;;;;;5040848;28;20037;-76
2023/08/29 07:42:04;;;;;;;6.45;4.90;;;15.40;99.90;;;;;;5060883;28;20052;-78
2023/08/29 07:44:30;;;;;;;6.43;4.65;;;15.40;99.90;;;;;;5043353;28;20073;-75
2023/08/29 07:46:56;;;;;;;4.85;4.40;;;15.50;99.90;;;;;;5047486;28;20037;-75
2023/08/29 07:49:22;;;;;;;6.32;4.60;;;15.60;99.90;;;;;;5064576;28;20073;-75
2023/08/29 07:51:51;;;;;;;6.15;3.80;;;15.70;99.90;;;;;;5048439;28;20088;-76
2023/08/29 07:54:17;;;;;;;5.25;3.78;;;15.70;99.90;;;;;;5048542;28;20048;-75
2023/08/29 07:56:42;;;;;;;5.70;3.60;;;15.80;99.90;;;;;;5048796;28;20079;-74
2023/08/29 07:59:08;;;;;;;5.38;3.75;;;15.90;99.90;;;;;;5055328;28;20052;-76
2023/08/29 08:01:34;;;;;;;4.90;3.13;;;16.00;99.90;;;;;;5039077;28;20041;-75
2023/08/29 08:03:59;;;;;;;4.57;3.15;;;16.10;99.90;;;;;;5051477;28;20090;-74
2023/08/29 08:06:25;;;;;;;3.85;2.85;;;16.20;99.90;;;;;;5051041;28;20041;-72
2023/08/29 08:08:51;;;;;;;4.57;2.60;;;16.30;99.90;;;;;;5051076;28;20431;-72
2023/08/29 08:11:16;;;;;;;5.00;2.60;;;16.40;99.90;;;;;;5064568;28;20146;-73
2023/08/29 08:13:42;;;;;;;4.40;2.22;;;16.50;99.90;;;;;;5050631;28;20514;-73
2023/08/29 08:16:08;;;;;;;4.30;2.20;;;16.60;99.90;;;;;;5044214;28;20533;-73
2023/08/29 08:18:33;;;;;;;3.72;2.00;;;16.70;99.90;;;;;;5039465;28;20060;-73
2023/08/29 08:20:59;;;;;;;3.45;1.60;;;16.80;99.90;;;;;;5045334;28;20037;-73
2023/08/29 08:23:25;;;;;;;4.60;1.85;;;16.90;99.90;;;;;;5042752;28;20088;-73
2023/08/29 08:25:50;;;;;;;5.45;2.45;;;17.00;99.90;;;;;;5046229;28;20480;-73
2023/08/29 08:28:16;;;;;;;3.45;2.20;;;17.10;99.90;;;;;;5047367;28;20048;-74
2023/08/29 08:30:42;;;;;;;3.85;1.80;;;17.20;99.90;;;;;;5051884;28;20040;-73
2023/08/29 08:33:07;;;;;;;3.65;1.50;;;17.40;99.90;;;;;;5039458;28;20385;-73
2023/08/29 08:35:33;;;;;;;3.47;1.98;;;17.40;99.90;;;;;;5042312;28;20558;-73
2023/08/29 08:37:59;;;;;;;4.63;1.42;;;17.40;99.90;;;;;;5046165;28;20582;-73
2023/08/29 08:40:24;;;;;;;4.95;1.50;;;17.50;99.90;;;;;;5050007;28;20447;-73
2023/08/29 08:42:50;;;;;;;2.03;1.10;;;17.60;99.90;;;;;;5045989;28;20521;-73
2023/08/29 08:45:16;;;;;;;3.75;1.45;;;17.70;99.90;;;;;;5052070;28;20048;-73
2023/08/29 08:47:42;;;;;;;3.10;1.65;;;17.80;99.90;;;;;;5051864;28;20493;-73
2023/08/29 08:50:09;;;;;;;3.35;1.60;;;17.80;99.90;;;;;;5051354;28;20032;-73
2023/08/29 08:52:36;;;;;;;3.33;1.30;;;17.90;99.90;;;;;;5049085;28;20791;-73
2023/08/29 08:55:02;;;;;;;3.05;1.80;;;18.00;99.90;;;;;;5039903;28;20357;-73
2023/08/29 08:57:27;;;;;;;2.97;1.20;;;18.00;99.90;;;;;;5048149;28;20037;-73
2023/08/29 08:59:53;;;;;;;2.40;0.93;;;18.00;99.90;;;;;;5051780;28;20060;-73
2023/08/29 09:02:19;;;;;;;2.85;1.30;;;18.00;99.90;;;;;;5051623;28;20103;-73
2023/08/29 09:04:45;;;;;;;3.83;1.17;;;18.00;99.90;;;;;;5035449;28;20049;-72
2023/08/29 09:07:11;;;;;;;3.85;1.10;;;18.00;99.90;;;;;;5045332;28;20049;-74
2023/08/29 09:09:37;;;;;;;2.00;1.38;;;18.00;99.90;;;;;;5051837;28;20482;-76
2023/08/29 09:12:03;;;;;;;4.53;1.40;;;18.10;99.90;;;;;;5051311;28;20045;-76
2023/08/29 09:14:31;;;;;;;6.25;1.70;;;18.20;99.90;;;;;;5048138;28;20583;-78
2023/08/29 09:16:58;;;;;;;1.75;0.80;;;18.20;99.90;;;;;;5046213;28;20045;-76
2023/08/29 09:19:25;;;;;;;2.83;0.95;;;18.20;99.90;;;;;;5049114;28;20033;-72
2023/08/29 09:21:51;;;;;;;9.77;1.55;;;18.20;99.90;;;;;;5051979;28;20083;-72
2023/08/29 09:24:34;;;;;;;2.33;0.80;;;18.20;99.90;;;;;;5043642;28;20044;-73
2023/08/29 09:27:07;;;;;;;6.85;1.10;;;18.20;99.90;;;;;;5039463;28;20048;-73
2023/08/29 09:29:33;;;;;;;2.65;1.00;;;18.30;99.90;;;;;;5042024;28;20041;-73
2023/08/29 09:31:59;;;;;;;2.33;0.95;;;18.40;99.90;;;;;;5045043;28;20511;-77
2023/08/29 09:34:27;;;;;;;3.92;0.93;;;18.40;99.90;;;;;;5045620;28;20044;-75
2023/08/29 09:36:53;;;;;;;2.85;1.10;;;18.50;99.90;;;;;;5050346;28;20049;-79
2023/08/29 09:39:20;;;;;;;3.40;1.20;;;18.40;99.90;;;;;;5039765;28;20045;-78
2023/08/29 09:42:04;;;;;;;3.72;1.27;;;18.40;99.90;;;;;;5048632;28;20487;-80
2023/08/29 09:44:38;;;;;;;2.28;0.82;;;18.50;99.90;;;;;;5038375;28;20072;-78
2023/08/29 09:47:05;;;;;;;2.20;1.08;;;18.60;99.90;;;;;;5044617;28;20049;-80
2023/08/29 09:49:47;;;;;;;1.52;0.70;;;18.60;99.90;;;;;;5043985;28;20045;-79
2023/08/29 09:52:14;;;;;;;4.03;1.05;;;18.80;99.90;;;;;;5048098;28;20041;-77
2023/08/29 09:54:43;;;;;;;;;;;18.90;99.90;;;;;;5048146;28;20094;-80
2023/08/29 09:57:12;;;;;;;4.43;1.17;;;18.90;99.90;;;;;;5039672;28;19932;-81
2023/08/29 09:59:39;;;;;;;2.15;0.80;;;19.00;99.90;;;;;;5044543;28;20049;-76
2023/08/29 10:02:06;;;;;;;1.80;0.82;;;19.00;99.90;;;;;;5050362;28;20056;-76
2023/08/29 10:04:34;;;;;;;;;;;19.10;99.90;;;;;;5047958;28;20045;-76
2023/08/29 10:07:01;;;;;;;1.20;0.70;;;19.20;99.90;;;;;;5045845;28;20261;-75
2023/08/29 10:09:28;;;;;;;2.45;0.95;;;19.30;99.90;;;;;;5048690;28;20064;-76
2023/08/29 10:11:55;;;;;;;2.15;0.75;;;19.40;99.90;;;;;;5062754;28;20048;-76
2023/08/29 10:14:22;;;;;;;1.53;0.80;;;19.50;99.90;;;;;;5038469;28;20052;-79
2023/08/29 10:16:49;;;;;;;2.47;1.17;;;19.60;99.90;;;;;;5040522;28;20045;-82
2023/08/29 10:19:15;;;;;;;2.95;1.20;;;19.60;99.90;;;;;;5038480;28;20083;-76
2023/08/29 10:21:46;;;;;;;3.08;0.88;;;19.80;99.90;;;;;;5046007;28;20082;-81
2023/08/29 10:24:12;;;;;;;3.25;1.30;;;19.90;99.90;;;;;;5037649;28;20143;-79
2023/08/29 10:26:38;;;;;;;2.80;0.98;;;20.00;99.90;;;;;;5043139;28;20443;-81
2023/08/29 10:29:07;;;;;;;1.52;0.90;;;20.10;99.90;;;;;;5044129;28;20033;-75
2023/08/29 10:31:34;;;;;;;2.55;1.40;;;20.10;99.90;;;;;;5041894;28;20727;-77
2023/08/29 10:34:03;;;;;;;1.63;0.82;;;20.00;99.90;;;;;;5047998;28;20580;-79
2023/08/29 10:36:29;;;;;;;2.30;1.13;;;20.00;99.90;;;;;;5048642;28;20048;-79
2023/08/29 10:38:59;;;;;;;1.50;0.98;;;19.90;99.90;;;;;;5046318;28;20448;-78
2023/08/29 10:41:26;;;;;;;3.80;1.20;;;19.80;99.90;;;;;;5048998;28;20098;-79
2023/08/29 10:44:21;;;;;;;;;;;19.80;99.90;;;;;;5042800;28;20045;-77
2023/08/29 10:46:53;;;;;;;3.17;1.00;;;19.80;99.90;;;;;;5045866;28;20426;-80
2023/08/29 10:49:21;;;;;;;3.33;0.90;;;19.90;99.90;;;;;;5039273;28;20045;-81
2023/08/29 10:52:08;;;;;;;2.70;0.88;;;19.90;99.90;;;;;;5040125;28;20053;-82
2023/08/29 10:54:34;;;;;;;1.85;0.90;;;19.90;99.90;;;;;;5047758;28;20167;-83
2023/08/29 10:57:28;;;;;;;2.20;1.13;;;19.90;99.90;;;;;;5040563;28;20080;-82
2023/08/29 10:59:55;;;;;;;1.42;0.90;;;20.00;99.90;;;;;;5049006;28;20132;-78
2023/08/29 11:02:29;;;;;;;3.10;1.10;;;20.00;99.90;;;;;;5047018;28;20075;-75
2023/08/29 11:05:12;;;;;;;2.38;1.00;;;20.00;99.90;;;;;;5044169;28;20151;-77
2023/08/29 11:07:41;;;;;;;3.42;1.20;;;20.00;99.90;;;;;;5041189;28;20045;-77
2023/08/29 11:10:20;;;;;;;2.30;1.08;;;20.00;99.90;;;;;;5046184;28;20488;-77
2023/08/29 11:13:09;;;;;;;5.40;1.15;;;20.10;99.90;;;;;;5046245;28;20518;-80
2023/08/29 11:15:47;;;;;;;3.63;1.00;;;20.20;99.90;;;;;;5043466;28;20040;-79
2023/08/29 11:18:29;;;;;;;2.10;0.90;;;20.20;99.90;;;;;;5042051;28;20144;-75
2023/08/29 11:20:55;;;;;;;4.15;0.90;;;20.20;99.90;;;;;;5042331;28;20048;-80
2023/08/29 11:23:22;;;;;;;2.65;1.08;;;20.30;99.90;;;;;;5034660;28;20051;-73
2023/08/29 11:25:51;;;;;;;1.38;0.80;;;20.30;99.90;;;;;;5035985;28;20139;-74
2023/08/29 11:28:18;;;;;;;1.50;0.82;;;20.40;99.90;;;;;;5048282;28;20048;-74
2023/08/29 11:30:45;;;;;;;1.92;0.80;;;20.50;99.90;;;;;;5048920;28;20119;-74
2023/08/29 11:33:14;;;;;;;1.65;0.73;;;20.60;99.90;;;;;;5047505;28;20045;-74
2023/08/29 11:35:42;;;;;;;1.88;0.77;;;20.60;99.90;;;;;;5048442;28;20146;-74
2023/08/29 11:38:08;;;;;;;3.47;1.05;;;20.60;99.90;;;;;;5035907;28;20063;-74
2023/08/29 11:40:34;;;;;;;2.83;0.90;;;20.60;99.90;;;;;;5042688;28;20547;-74
2023/08/29 11:43:00;;;;;;;2.07;0.70;;;20.60;99.90;;;;;;5042104;28;20041;-74
2023/08/29 11:45:29;;;;;;;1.98;0.70;;;20.70;99.90;;;;;;5048338;28;20052;-71
2023/08/29 11:47:56;;;;;;;2.22;1.00;;;20.80;99.90;;;;;;5052630;28;20049;-71
2023/08/29 11:50:22;;;;;;;2.78;1.02;;;20.90;99.90;;;;;;5052453;28;20088;-71
2023/08/29 11:52:48;;;;;;;2.45;1.00;;;21.00;99.90;;;;;;5050916;28;20146;-72
2023/08/29 11:55:16;;;;;;;2.10;0.70;;;21.20;99.90;;;;;;5049294;28;20148;-71
2023/08/29 11:57:45;;;;;;;1.88;0.93;;;21.30;99.90;;;;;;5049205;28;20102;-71
2023/08/29 12:00:13;;;;;;;1.52;1.17;;;21.40;99.90;;;;;;5041143;28;20128;-71
2023/08/29 12:02:39;;;;;;;2.33;1.58;;;21.50;99.90;;;;;;5045277;28;20041;-72
2023/08/29 12:05:10;;;;;;;3.22;1.30;;;21.60;99.90;;;;;;5051451;28;20068;-72
2023/08/29 12:07:37;;;;;;;3.60;1.60;;;21.70;99.90;;;;;;5051415;28;20041;-71
2023/08/29 12:10:16;;;;;;;2.20;1.40;;;21.70;99.90;;;;;;5049448;28;20076;-71
2023/08/29 12:12:42;;;;;;;1.65;1.30;;;21.80;99.90;;;;;;5052171;28;20057;-71
2023/08/29 12:15:14;;;;;;;2.70;1.02;;;21.90;99.90;;;;;;5050985;28;20056;-71
2023/08/29 12:17:42;;;;;;;1.90;0.93;;;21.90;99.90;;;;;;5041842;28;20048;-71
2023/08/29 12:20:14;;;;;;;2.38;0.80;;;21.90;99.90;;;;;;5049703;28;20128;-71
2023/08/29 12:22:44;;;;;;;2.08;1.00;;;21.90;99.90;;;;;;5046337;28;20087;-71
2023/08/29 12:25:10;;;;;;;2.13;1.23;;;22.00;99.90;;;;;;5050092;28;20503;-72
2023/08/29 12:27:37;;;;;;;3.03;1.00;;;22.00;99.90;;;;;;5049080;28;20095;-73
2023/08/29 12:30:04;;;;;;;;;;;22.10;99.90;;;;;;5051885;28;20088;-73
2023/08/29 12:32:30;;;;;;;1.58;0.93;;;22.10;99.90;;;;;;5037564;28;19996;-73
2023/08/29 12:34:57;;;;;;;1.17;0.80;;;22.20;99.90;;;;;;5041103;28;20140;-73
2023/08/29 12:37:23;;;;;;;1.33;0.70;;;22.20;99.90;;;;;;5040314;28;20471;-73
2023/08/29 12:39:50;;;;;;;1.27;0.80;;;22.10;99.90;;;;;;5050290;28;20047;-73
2023/08/29 12:42:16;;;;;;;1.37;0.80;;;22.10;99.90;;;;;;5050485;28;20041;-72
2023/08/29 12:44:42;;;;;;;2.08;0.95;;;22.10;99.90;;;;;;5050262;28;20368;-72
2023/08/29 12:47:08;;;;;;;1.85;0.80;;;22.00;99.90;;;;;;5045767;28;20041;-73
2023/08/29 12:49:35;;;;;;;2.67;1.23;;;21.90;99.90;;;;;;5041563;28;20064;-73